sensor_id;sensor_type;location;lat;lon;timestamp;P1;durP1;ratioP1;P2;durP2;ratioP2
51479;SDS011;37556;44.570;18.612;2022-12-18T07:56:28;2.00;;;1.90;;
51479;SDS011;37556;44.570;18.612;2022-12-18T07:58:54;2.65;;;0.90;;
51479;SDS011;37556;44.570;18.612;2022-12-18T08:01:20;2.35;;;2.13;;
51479;SDS011;37556;44.570;18.612;2022-12-18T08:03:46;7.13;;;3.35;;
51479;SDS011;37556;44.570;18.612;2022-12-18T08:09:02;2.78;;;2.00;;
51479;SDS011;37556;44.570;18.612;2022-12-18T08:13:54;5.55;;;3.70;;
51479;SDS011;37556;44.570;18.612;2022-12-18T08:16:21;3.92;;;1.98;;
51479;SDS011;37556;44.570;18.612;2022-12-18T08:18:48;5.03;;;4.45;;
51479;SDS011;37556;44.570;18.612;2022-12-18T08:21:15;1.27;;;1.27;;
51479;SDS011;37556;44.570;18.612;2022-12-18T08:23:43;3.72;;;3.13;;
51479;SDS011;37556;44.570;18.612;2022-12-18T08:26:12;4.32;;;3.92;;
51479;SDS011;37556;44.570;18.612;2022-12-18T08:28:39;3.13;;;2.13;;
51479;SDS011;37556;44.570;18.612;2022-12-18T08:31:07;3.83;;;3.47;;
51479;SDS011;37556;44.570;18.612;2022-12-18T08:33:34;5.95;;;4.25;;
51479;SDS011;37556;44.570;18.612;2022-12-18T08:36:01;4.10;;;3.75;;
51479;SDS011;37556;44.570;18.612;2022-12-18T08:38:27;6.18;;;3.72;;
51479;SDS011;37556;44.570;18.612;2022-12-18T08:41:04;4.13;;;2.63;;
51479;SDS011;37556;44.570;18.612;2022-12-18T08:46:18;3.03;;;2.92;;
51479;SDS011;37556;44.570;18.612;2022-12-18T08:48:44;3.95;;;2.80;;
51479;SDS011;37556;44.570;18.612;2022-12-18T08:51:11;3.10;;;2.65;;
51479;SDS011;37556;44.570;18.612;2022-12-18T08:53:37;1.30;;;1.20;;
51479;SDS011;37556;44.570;18.612;2022-12-18T08:56:03;2.50;;;2.03;;
51479;SDS011;37556;44.570;18.612;2022-12-18T08:58:30;4.22;;;3.10;;
51479;SDS011;37556;44.570;18.612;2022-12-18T09:00:59;5.20;;;4.28;;
51479;SDS011;37556;44.570;18.612;2022-12-18T09:03:27;1.63;;;1.63;;
51479;SDS011;37556;44.570;18.612;2022-12-18T09:05:53;1.58;;;1.58;;
51479;SDS011;37556;44.570;18.612;2022-12-18T09:08:19;4.88;;;2.55;;
51479;SDS011;37556;44.570;18.612;2022-12-18T09:10:45;4.55;;;4.10;;
51479;SDS011;37556;44.570;18.612;2022-12-18T09:13:12;2.58;;;2.42;;
51479;SDS011;37556;44.570;18.612;2022-12-18T09:15:42;1.90;;;1.23;;
51479;SDS011;37556;44.570;18.612;2022-12-18T09:18:10;4.85;;;2.47;;
51479;SDS011;37556;44.570;18.612;2022-12-18T09:20:39;7.28;;;3.40;;
51479;SDS011;37556;44.570;18.612;2022-12-18T09:23:05;1.45;;;1.40;;
51479;SDS011;37556;44.570;18.612;2022-12-18T09:28:02;1.05;;;1.05;;
51479;SDS011;37556;44.570;18.612;2022-12-18T09:30:29;7.35;;;1.30;;
51479;SDS011;37556;44.570;18.612;2022-12-18T09:32:55;0.70;;;0.68;;
51479;SDS011;37556;44.570;18.612;2022-12-18T09:37:48;0.77;;;0.77;;
51479;SDS011;37556;44.570;18.612;2022-12-18T09:40:14;1.52;;;1.45;;
51479;SDS011;37556;44.570;18.612;2022-12-18T09:42:42;1.55;;;1.42;;
51479;SDS011;37556;44.570;18.612;2022-12-18T09:45:12;3.00;;;2.60;;
51479;SDS011;37556;44.570;18.612;2022-12-18T09:47:39;3.03;;;2.70;;
51479;SDS011;37556;44.570;18.612;2022-12-18T09:52:48;5.05;;;3.38;;
51479;SDS011;37556;44.570;18.612;2022-12-18T09:57:48;3.83;;;2.72;;
51479;SDS011;37556;44.570;18.612;2022-12-18T10:00:16;2.08;;;1.95;;
51479;SDS011;37556;44.570;18.612;2022-12-18T10:02:43;6.72;;;1.67;;
51479;SDS011;37556;44.570;18.612;2022-12-18T10:05:11;2.00;;;1.83;;
51479;SDS011;37556;44.570;18.612;2022-12-18T10:15:35;2.05;;;1.08;;
51479;SDS011;37556;44.570;18.612;2022-12-18T10:18:15;1.33;;;1.33;;
51479;SDS011;37556;44.570;18.612;2022-12-18T10:20:44;5.88;;;1.67;;
51479;SDS011;37556;44.570;18.612;2022-12-18T10:25:59;1.27;;;1.25;;
51479;SDS011;37556;44.570;18.612;2022-12-18T10:28:26;1.73;;;1.63;;
51479;SDS011;37556;44.570;18.612;2022-12-18T10:30:53;1.58;;;1.15;;
51479;SDS011;37556;44.570;18.612;2022-12-18T10:33:20;0.65;;;0.65;;
51479;SDS011;37556;44.570;18.612;2022-12-18T10:35:48;1.15;;;0.57;;
51479;SDS011;37556;44.570;18.612;2022-12-18T10:51:46;1.02;;;1.02;;
51479;SDS011;37556;44.570;18.612;2022-12-18T10:54:26;4.85;;;2.83;;
51479;SDS011;37556;44.570;18.612;2022-12-18T10:56:52;3.78;;;3.47;;
51479;SDS011;37556;44.570;18.612;2022-12-18T10:59:49;1.27;;;1.23;;
51479;SDS011;37556;44.570;18.612;2022-12-18T11:02:25;4.72;;;1.50;;
51479;SDS011;37556;44.570;18.612;2022-12-18T11:04:52;3.33;;;2.05;;
51479;SDS011;37556;44.570;18.612;2022-12-18T11:09:45;3.33;;;1.30;;
51479;SDS011;37556;44.570;18.612;2022-12-18T11:12:25;1.60;;;1.50;;
51479;SDS011;37556;44.570;18.612;2022-12-18T11:14:54;5.95;;;2.83;;
51479;SDS011;37556;44.570;18.612;2022-12-18T11:19:54;2.40;;;2.28;;
51479;SDS011;37556;44.570;18.612;2022-12-18T11:22:24;2.75;;;2.55;;
51479;SDS011;37556;44.570;18.612;2022-12-18T11:24:56;1.48;;;1.48;;
51479;SDS011;37556;44.570;18.612;2022-12-18T11:27:24;1.15;;;1.13;;
51479;SDS011;37556;44.570;18.612;2022-12-18T11:32:36;2.13;;;2.00;;
51479;SDS011;37556;44.570;18.612;2022-12-18T11:37:32;2.15;;;2.00;;
51479;SDS011;37556;44.570;18.612;2022-12-18T11:40:00;3.25;;;2.95;;
51479;SDS011;37556;44.570;18.612;2022-12-18T11:42:28;1.95;;;1.83;;
51479;SDS011;37556;44.570;18.612;2022-12-18T11:47:45;0.82;;;0.82;;
51479;SDS011;37556;44.570;18.612;2022-12-18T11:50:22;2.25;;;1.98;;
51479;SDS011;37556;44.570;18.612;2022-12-18T11:52:49;2.00;;;1.02;;
51479;SDS011;37556;44.570;18.612;2022-12-18T11:55:16;4.15;;;1.55;;
51479;SDS011;37556;44.570;18.612;2022-12-18T11:57:52;3.03;;;1.95;;
51479;SDS011;37556;44.570;18.612;2022-12-18T12:00:22;1.02;;;0.93;;
51479;SDS011;37556;44.570;18.612;2022-12-18T12:05:18;4.68;;;1.08;;
51479;SDS011;37556;44.570;18.612;2022-12-18T12:07:52;1.75;;;1.65;;
51479;SDS011;37556;44.570;18.612;2022-12-18T12:10:24;1.63;;;1.52;;
51479;SDS011;37556;44.570;18.612;2022-12-18T12:18:16;1.83;;;1.73;;
51479;SDS011;37556;44.570;18.612;2022-12-18T12:28:53;4.18;;;3.75;;
51479;SDS011;37556;44.570;18.612;2022-12-18T12:31:30;2.97;;;2.78;;
51479;SDS011;37556;44.570;18.612;2022-12-18T12:36:33;4.75;;;3.58;;
51479;SDS011;37556;44.570;18.612;2022-12-18T12:39:04;3.78;;;3.45;;
51479;SDS011;37556;44.570;18.612;2022-12-18T12:41:32;3.33;;;2.75;;
51479;SDS011;37556;44.570;18.612;2022-12-18T12:44:39;2.90;;;2.60;;
51479;SDS011;37556;44.570;18.612;2022-12-18T12:47:11;3.25;;;2.95;;
51479;SDS011;37556;44.570;18.612;2022-12-18T12:49:39;6.90;;;3.35;;
51479;SDS011;37556;44.570;18.612;2022-12-18T12:52:07;3.25;;;2.13;;
51479;SDS011;37556;44.570;18.612;2022-12-18T12:54:36;2.67;;;1.77;;
51479;SDS011;37556;44.570;18.612;2022-12-18T13:02:18;3.13;;;2.83;;
51479;SDS011;37556;44.570;18.612;2022-12-18T13:07:16;1.17;;;1.17;;
51479;SDS011;37556;44.570;18.612;2022-12-18T13:12:29;4.13;;;2.58;;
51479;SDS011;37556;44.570;18.612;2022-12-18T13:15:21;1.10;;;1.08;;
51479;SDS011;37556;44.570;18.612;2022-12-18T13:17:47;2.17;;;2.05;;
51479;SDS011;37556;44.570;18.612;2022-12-18T13:20:14;3.08;;;2.88;;
51479;SDS011;37556;44.570;18.612;2022-12-18T13:43:45;6.45;;;1.83;;
51479;SDS011;37556;44.570;18.612;2022-12-18T13:46:30;2.88;;;2.67;;
51479;SDS011;37556;44.570;18.612;2022-12-18T13:48:57;2.30;;;2.03;;
51479;SDS011;37556;44.570;18.612;2022-12-18T13:51:24;4.53;;;3.10;;
51479;SDS011;37556;44.570;18.612;2022-12-18T13:53:55;11.95;;;2.88;;
51479;SDS011;37556;44.570;18.612;2022-12-18T13:56:24;5.25;;;4.53;;
51479;SDS011;37556;44.570;18.612;2022-12-18T14:01:31;3.88;;;3.05;;
51479;SDS011;37556;44.570;18.612;2022-12-18T14:06:42;4.70;;;2.47;;
51479;SDS011;37556;44.570;18.612;2022-12-18T14:09:12;6.82;;;2.67;;
51479;SDS011;37556;44.570;18.612;2022-12-18T14:11:39;2.55;;;2.08;;
51479;SDS011;37556;44.570;18.612;2022-12-18T14:14:05;4.10;;;2.67;;
51479;SDS011;37556;44.570;18.612;2022-12-18T14:16:32;6.18;;;2.58;;
51479;SDS011;37556;44.570;18.612;2022-12-18T14:18:59;3.78;;;2.60;;
51479;SDS011;37556;44.570;18.612;2022-12-18T14:21:26;2.30;;;2.10;;
51479;SDS011;37556;44.570;18.612;2022-12-18T14:24:03;9.30;;;5.90;;
51479;SDS011;37556;44.570;18.612;2022-12-18T14:26:30;3.90;;;3.08;;
51479;SDS011;37556;44.570;18.612;2022-12-18T14:28:59;2.75;;;2.30;;
51479;SDS011;37556;44.570;18.612;2022-12-18T14:31:30;3.13;;;1.40;;
51479;SDS011;37556;44.570;18.612;2022-12-18T14:33:56;2.25;;;1.63;;
51479;SDS011;37556;44.570;18.612;2022-12-18T14:38:52;2.50;;;2.17;;
51479;SDS011;37556;44.570;18.612;2022-12-18T14:41:19;3.10;;;2.88;;
51479;SDS011;37556;44.570;18.612;2022-12-18T14:43:46;7.95;;;2.55;;
51479;SDS011;37556;44.570;18.612;2022-12-18T14:46:28;8.25;;;4.15;;
51479;SDS011;37556;44.570;18.612;2022-12-18T14:48:55;4.47;;;4.18;;
51479;SDS011;37556;44.570;18.612;2022-12-18T14:51:25;3.10;;;2.80;;
51479;SDS011;37556;44.570;18.612;2022-12-18T14:54:02;11.32;;;3.80;;
51479;SDS011;37556;44.570;18.612;2022-12-18T15:01:24;3.83;;;2.70;;
51479;SDS011;37556;44.570;18.612;2022-12-18T15:03:52;4.15;;;2.70;;
51479;SDS011;37556;44.570;18.612;2022-12-18T15:08:54;1.30;;;1.25;;
51479;SDS011;37556;44.570;18.612;2022-12-18T15:13:46;6.07;;;4.22;;
51479;SDS011;37556;44.570;18.612;2022-12-18T15:16:12;4.75;;;3.97;;
51479;SDS011;37556;44.570;18.612;2022-12-18T15:21:10;3.97;;;3.25;;
51479;SDS011;37556;44.570;18.612;2022-12-18T15:26:10;10.30;;;3.85;;
51479;SDS011;37556;44.570;18.612;2022-12-18T15:28:38;1.95;;;1.65;;
51479;SDS011;37556;44.570;18.612;2022-12-18T15:36:12;4.75;;;2.10;;
51479;SDS011;37556;44.570;18.612;2022-12-18T15:38:39;3.35;;;2.67;;
51479;SDS011;37556;44.570;18.612;2022-12-18T15:43:32;3.00;;;2.13;;
51479;SDS011;37556;44.570;18.612;2022-12-18T15:48:27;7.18;;;1.95;;
51479;SDS011;37556;44.570;18.612;2022-12-18T15:50:54;3.10;;;2.50;;
51479;SDS011;37556;44.570;18.612;2022-12-18T15:53:22;8.43;;;4.45;;
51479;SDS011;37556;44.570;18.612;2022-12-18T15:55:48;11.85;;;6.50;;
51479;SDS011;37556;44.570;18.612;2022-12-18T15:58:33;5.88;;;4.15;;
51479;SDS011;37556;44.570;18.612;2022-12-18T16:00:59;8.50;;;3.60;;
51479;SDS011;37556;44.570;18.612;2022-12-18T16:03:26;8.25;;;4.53;;
51479;SDS011;37556;44.570;18.612;2022-12-18T16:08:18;6.75;;;4.05;;
51479;SDS011;37556;44.570;18.612;2022-12-18T16:10:46;2.35;;;1.83;;
51479;SDS011;37556;44.570;18.612;2022-12-18T16:13:14;2.03;;;1.90;;
51479;SDS011;37556;44.570;18.612;2022-12-18T16:15:41;3.50;;;2.25;;
51479;SDS011;37556;44.570;18.612;2022-12-18T16:20:33;6.18;;;3.60;;
51479;SDS011;37556;44.570;18.612;2022-12-18T16:23:00;6.60;;;6.00;;
51479;SDS011;37556;44.570;18.612;2022-12-18T16:25:26;4.97;;;3.63;;
51479;SDS011;37556;44.570;18.612;2022-12-18T16:27:53;4.90;;;2.83;;
51479;SDS011;37556;44.570;18.612;2022-12-18T16:30:28;2.97;;;1.88;;
51479;SDS011;37556;44.570;18.612;2022-12-18T16:32:55;1.20;;;1.20;;
51479;SDS011;37556;44.570;18.612;2022-12-18T16:35:21;1.40;;;1.40;;
51479;SDS011;37556;44.570;18.612;2022-12-18T16:40:14;2.25;;;2.05;;
51479;SDS011;37556;44.570;18.612;2022-12-18T16:42:41;2.17;;;1.98;;
51479;SDS011;37556;44.570;18.612;2022-12-18T16:45:08;2.42;;;1.75;;
51479;SDS011;37556;44.570;18.612;2022-12-18T16:47:35;1.73;;;1.63;;
51479;SDS011;37556;44.570;18.612;2022-12-18T16:50:01;2.67;;;2.47;;
51479;SDS011;37556;44.570;18.612;2022-12-18T16:52:27;2.28;;;2.08;;
51479;SDS011;37556;44.570;18.612;2022-12-18T16:54:54;5.47;;;4.00;;
51479;SDS011;37556;44.570;18.612;2022-12-18T16:59:46;2.13;;;1.98;;
51479;SDS011;37556;44.570;18.612;2022-12-18T17:02:16;1.75;;;1.73;;
51479;SDS011;37556;44.570;18.612;2022-12-18T17:04:43;6.07;;;2.60;;
51479;SDS011;37556;44.570;18.612;2022-12-18T17:07:10;9.30;;;6.30;;
51479;SDS011;37556;44.570;18.612;2022-12-18T17:12:02;3.10;;;2.92;;
51479;SDS011;37556;44.570;18.612;2022-12-18T17:16:54;3.13;;;2.88;;
51479;SDS011;37556;44.570;18.612;2022-12-18T17:19:21;7.05;;;3.85;;
51479;SDS011;37556;44.570;18.612;2022-12-18T17:24:13;7.75;;;4.75;;
51479;SDS011;37556;44.570;18.612;2022-12-18T17:26:39;5.05;;;2.80;;
51479;SDS011;37556;44.570;18.612;2022-12-18T17:29:06;3.70;;;3.40;;
51479;SDS011;37556;44.570;18.612;2022-12-18T17:31:32;9.18;;;3.88;;
51479;SDS011;37556;44.570;18.612;2022-12-18T17:34:00;6.28;;;3.53;;
51479;SDS011;37556;44.570;18.612;2022-12-18T17:36:26;2.47;;;2.38;;
51479;SDS011;37556;44.570;18.612;2022-12-18T17:38:56;3.55;;;3.30;;
51479;SDS011;37556;44.570;18.612;2022-12-18T17:41:22;3.92;;;3.03;;
51479;SDS011;37556;44.570;18.612;2022-12-18T17:43:52;7.78;;;4.38;;
51479;SDS011;37556;44.570;18.612;2022-12-18T17:46:19;3.65;;;2.97;;
51479;SDS011;37556;44.570;18.612;2022-12-18T17:48:45;5.20;;;4.38;;
51479;SDS011;37556;44.570;18.612;2022-12-18T17:53:38;13.55;;;6.22;;
51479;SDS011;37556;44.570;18.612;2022-12-18T17:56:04;5.20;;;4.20;;
51479;SDS011;37556;44.570;18.612;2022-12-18T17:58:31;7.60;;;3.00;;
51479;SDS011;37556;44.570;18.612;2022-12-18T18:00:57;6.45;;;5.93;;
51479;SDS011;37556;44.570;18.612;2022-12-18T18:03:24;4.75;;;4.43;;
51479;SDS011;37556;44.570;18.612;2022-12-18T18:08:16;3.90;;;3.33;;
51479;SDS011;37556;44.570;18.612;2022-12-18T18:10:42;6.70;;;6.18;;
51479;SDS011;37556;44.570;18.612;2022-12-18T18:13:16;4.70;;;4.35;;
51479;SDS011;37556;44.570;18.612;2022-12-18T18:16:01;4.15;;;2.72;;
51479;SDS011;37556;44.570;18.612;2022-12-18T18:20:53;6.57;;;4.32;;
51479;SDS011;37556;44.570;18.612;2022-12-18T18:23:20;5.38;;;4.40;;
51479;SDS011;37556;44.570;18.612;2022-12-18T18:25:46;8.68;;;6.00;;
51479;SDS011;37556;44.570;18.612;2022-12-18T18:28:12;18.95;;;9.55;;
51479;SDS011;37556;44.570;18.612;2022-12-18T18:33:05;8.75;;;4.90;;
51479;SDS011;37556;44.570;18.612;2022-12-18T18:35:31;2.35;;;2.15;;
51479;SDS011;37556;44.570;18.612;2022-12-18T18:37:57;2.90;;;1.80;;
51479;SDS011;37556;44.570;18.612;2022-12-18T18:40:23;4.63;;;4.22;;
51479;SDS011;37556;44.570;18.612;2022-12-18T18:42:49;5.95;;;5.40;;
51479;SDS011;37556;44.570;18.612;2022-12-18T18:45:18;11.23;;;8.60;;
51479;SDS011;37556;44.570;18.612;2022-12-18T18:47:45;4.32;;;3.97;;
51479;SDS011;37556;44.570;18.612;2022-12-18T18:52:37;3.75;;;2.97;;
51479;SDS011;37556;44.570;18.612;2022-12-18T18:57:33;24.63;;;6.82;;
51479;SDS011;37556;44.570;18.612;2022-12-18T18:59:59;16.00;;;7.13;;
51479;SDS011;37556;44.570;18.612;2022-12-18T19:02:28;39.80;;;14.75;;
51479;SDS011;37556;44.570;18.612;2022-12-18T19:04:54;5.75;;;4.93;;
51479;SDS011;37556;44.570;18.612;2022-12-18T19:07:21;26.27;;;6.32;;
51479;SDS011;37556;44.570;18.612;2022-12-18T19:12:18;12.20;;;6.30;;
51479;SDS011;37556;44.570;18.612;2022-12-18T19:15:03;6.13;;;3.78;;
51479;SDS011;37556;44.570;18.612;2022-12-18T19:17:32;4.00;;;3.45;;
51479;SDS011;37556;44.570;18.612;2022-12-18T19:19:58;3.35;;;3.05;;
51479;SDS011;37556;44.570;18.612;2022-12-18T19:22:24;3.83;;;3.40;;
51479;SDS011;37556;44.570;18.612;2022-12-18T19:24:57;6.07;;;5.57;;
51479;SDS011;37556;44.570;18.612;2022-12-18T19:27:25;7.93;;;7.22;;
51479;SDS011;37556;44.570;18.612;2022-12-18T19:30:00;12.32;;;6.85;;
51479;SDS011;37556;44.570;18.612;2022-12-18T19:32:26;20.08;;;9.88;;
51479;SDS011;37556;44.570;18.612;2022-12-18T19:34:52;13.93;;;6.05;;
51479;SDS011;37556;44.570;18.612;2022-12-18T19:39:44;7.18;;;4.82;;
51479;SDS011;37556;44.570;18.612;2022-12-18T19:42:11;17.67;;;9.82;;
51479;SDS011;37556;44.570;18.612;2022-12-18T19:44:37;16.65;;;9.57;;
51479;SDS011;37556;44.570;18.612;2022-12-18T19:47:03;10.02;;;6.88;;
51479;SDS011;37556;44.570;18.612;2022-12-18T19:49:29;19.42;;;6.78;;
51479;SDS011;37556;44.570;18.612;2022-12-18T19:51:56;17.58;;;7.80;;
51479;SDS011;37556;44.570;18.612;2022-12-18T19:54:22;14.70;;;6.43;;
51479;SDS011;37556;44.570;18.612;2022-12-18T19:56:48;6.35;;;5.70;;
51479;SDS011;37556;44.570;18.612;2022-12-18T19:59:16;17.05;;;8.45;;
51479;SDS011;37556;44.570;18.612;2022-12-18T20:01:43;15.13;;;10.05;;
51479;SDS011;37556;44.570;18.612;2022-12-18T20:04:09;10.82;;;8.73;;
51479;SDS011;37556;44.570;18.612;2022-12-18T20:06:36;22.33;;;12.00;;
51479;SDS011;37556;44.570;18.612;2022-12-18T20:09:10;4.50;;;4.07;;
51479;SDS011;37556;44.570;18.612;2022-12-18T20:11:36;8.90;;;6.72;;
51479;SDS011;37556;44.570;18.612;2022-12-18T20:14:02;18.10;;;3.78;;
51479;SDS011;37556;44.570;18.612;2022-12-18T20:18:55;2.78;;;2.60;;
51479;SDS011;37556;44.570;18.612;2022-12-18T20:21:21;11.45;;;5.18;;
51479;SDS011;37556;44.570;18.612;2022-12-18T20:23:48;31.92;;;2.63;;
51479;SDS011;37556;44.570;18.612;2022-12-18T20:26:14;4.55;;;1.52;;
51479;SDS011;37556;44.570;18.612;2022-12-18T20:28:40;8.90;;;4.55;;
51479;SDS011;37556;44.570;18.612;2022-12-18T20:31:06;6.90;;;2.45;;
51479;SDS011;37556;44.570;18.612;2022-12-18T20:33:33;6.53;;;4.85;;
51479;SDS011;37556;44.570;18.612;2022-12-18T20:36:04;2.92;;;2.25;;
51479;SDS011;37556;44.570;18.612;2022-12-18T20:38:31;6.38;;;3.47;;
51479;SDS011;37556;44.570;18.612;2022-12-18T20:40:57;10.23;;;4.85;;
51479;SDS011;37556;44.570;18.612;2022-12-18T20:43:26;6.97;;;4.97;;
51479;SDS011;37556;44.570;18.612;2022-12-18T20:45:58;13.15;;;6.78;;
51479;SDS011;37556;44.570;18.612;2022-12-18T20:48:25;5.95;;;5.07;;
51479;SDS011;37556;44.570;18.612;2022-12-18T20:51:02;18.33;;;4.30;;
51479;SDS011;37556;44.570;18.612;2022-12-18T20:53:29;6.15;;;5.63;;
51479;SDS011;37556;44.570;18.612;2022-12-18T20:55:56;7.53;;;4.03;;
51479;SDS011;37556;44.570;18.612;2022-12-18T20:58:22;5.57;;;4.50;;
51479;SDS011;37556;44.570;18.612;2022-12-18T21:00:48;4.75;;;3.88;;
51479;SDS011;37556;44.570;18.612;2022-12-18T21:03:14;5.90;;;4.63;;
51479;SDS011;37556;44.570;18.612;2022-12-18T21:05:41;8.38;;;3.95;;
51479;SDS011;37556;44.570;18.612;2022-12-18T21:08:08;10.45;;;5.93;;
51479;SDS011;37556;44.570;18.612;2022-12-18T21:10:34;7.93;;;7.22;;
51479;SDS011;37556;44.570;18.612;2022-12-18T21:13:00;8.07;;;4.97;;
51479;SDS011;37556;44.570;18.612;2022-12-18T21:15:26;8.32;;;7.65;;
51479;SDS011;37556;44.570;18.612;2022-12-18T21:17:52;16.73;;;3.63;;
51479;SDS011;37556;44.570;18.612;2022-12-18T21:20:18;14.82;;;5.18;;
51479;SDS011;37556;44.570;18.612;2022-12-18T21:22:45;16.60;;;5.60;;
51479;SDS011;37556;44.570;18.612;2022-12-18T21:27:37;5.30;;;4.95;;
51479;SDS011;37556;44.570;18.612;2022-12-18T21:30:03;5.45;;;3.25;;
51479;SDS011;37556;44.570;18.612;2022-12-18T21:34:55;8.68;;;6.10;;
51479;SDS011;37556;44.570;18.612;2022-12-18T21:37:21;4.40;;;3.90;;
51479;SDS011;37556;44.570;18.612;2022-12-18T21:39:47;11.05;;;5.90;;
51479;SDS011;37556;44.570;18.612;2022-12-18T21:42:13;6.95;;;3.20;;
51479;SDS011;37556;44.570;18.612;2022-12-18T21:44:58;5.70;;;5.18;;
51479;SDS011;37556;44.570;18.612;2022-12-18T21:47:24;8.57;;;4.93;;
51479;SDS011;37556;44.570;18.612;2022-12-18T21:49:51;3.80;;;2.38;;
51479;SDS011;37556;44.570;18.612;2022-12-18T21:52:17;2.97;;;2.85;;
51479;SDS011;37556;44.570;18.612;2022-12-18T21:54:43;10.00;;;4.70;;
51479;SDS011;37556;44.570;18.612;2022-12-18T21:57:09;3.72;;;3.42;;
51479;SDS011;37556;44.570;18.612;2022-12-18T21:59:38;4.40;;;4.05;;
51479;SDS011;37556;44.570;18.612;2022-12-18T22:02:25;4.10;;;3.15;;
51479;SDS011;37556;44.570;18.612;2022-12-18T22:04:51;7.53;;;3.53;;
51479;SDS011;37556;44.570;18.612;2022-12-18T22:07:17;16.85;;;8.85;;
51479;SDS011;37556;44.570;18.612;2022-12-18T22:09:43;9.48;;;4.68;;
51479;SDS011;37556;44.570;18.612;2022-12-18T22:12:10;8.52;;;7.80;;
51479;SDS011;37556;44.570;18.612;2022-12-18T22:14:37;18.80;;;10.52;;
51479;SDS011;37556;44.570;18.612;2022-12-18T22:17:03;11.82;;;6.60;;
51479;SDS011;37556;44.570;18.612;2022-12-18T22:19:29;20.48;;;8.75;;
51479;SDS011;37556;44.570;18.612;2022-12-18T22:21:55;8.80;;;8.20;;
51479;SDS011;37556;44.570;18.612;2022-12-18T22:24:23;5.70;;;5.35;;
51479;SDS011;37556;44.570;18.612;2022-12-18T22:26:49;18.50;;;11.82;;
51479;SDS011;37556;44.570;18.612;2022-12-18T22:29:21;11.80;;;8.88;;
51479;SDS011;37556;44.570;18.612;2022-12-18T22:32:06;8.35;;;6.65;;
51479;SDS011;37556;44.570;18.612;2022-12-18T22:34:32;9.52;;;6.10;;
51479;SDS011;37556;44.570;18.612;2022-12-18T22:36:58;11.98;;;7.93;;
51479;SDS011;37556;44.570;18.612;2022-12-18T22:41:51;5.32;;;4.90;;
51479;SDS011;37556;44.570;18.612;2022-12-18T22:44:17;8.18;;;5.00;;
51479;SDS011;37556;44.570;18.612;2022-12-18T22:46:47;9.23;;;5.65;;
51479;SDS011;37556;44.570;18.612;2022-12-18T22:49:14;13.23;;;4.60;;
51479;SDS011;37556;44.570;18.612;2022-12-18T22:51:42;13.55;;;6.55;;
51479;SDS011;37556;44.570;18.612;2022-12-18T22:56:34;13.18;;;6.00;;
51479;SDS011;37556;44.570;18.612;2022-12-18T22:59:00;10.85;;;9.38;;
51479;SDS011;37556;44.570;18.612;2022-12-18T23:01:27;11.45;;;7.72;;
51479;SDS011;37556;44.570;18.612;2022-12-18T23:03:54;4.38;;;3.63;;
51479;SDS011;37556;44.570;18.612;2022-12-18T23:06:21;10.80;;;9.77;;
51479;SDS011;37556;44.570;18.612;2022-12-18T23:08:47;6.88;;;4.40;;
51479;SDS011;37556;44.570;18.612;2022-12-18T23:13:39;18.48;;;7.20;;
51479;SDS011;37556;44.570;18.612;2022-12-18T23:18:32;7.18;;;4.97;;
51479;SDS011;37556;44.570;18.612;2022-12-18T23:21:02;7.95;;;7.20;;
51479;SDS011;37556;44.570;18.612;2022-12-18T23:23:28;7.30;;;5.60;;
51479;SDS011;37556;44.570;18.612;2022-12-18T23:26:02;6.60;;;6.10;;
51479;SDS011;37556;44.570;18.612;2022-12-18T23:28:29;4.82;;;4.32;;
51479;SDS011;37556;44.570;18.612;2022-12-18T23:31:00;16.58;;;6.55;;
51479;SDS011;37556;44.570;18.612;2022-12-18T23:33:26;3.63;;;3.13;;
51479;SDS011;37556;44.570;18.612;2022-12-18T23:35:56;5.82;;;5.28;;
51479;SDS011;37556;44.570;18.612;2022-12-18T23:38:23;13.57;;;7.18;;
51479;SDS011;37556;44.570;18.612;2022-12-18T23:40:49;4.18;;;3.17;;
51479;SDS011;37556;44.570;18.612;2022-12-18T23:43:15;5.18;;;4.68;;
51479;SDS011;37556;44.570;18.612;2022-12-18T23:45:42;7.55;;;4.90;;
51479;SDS011;37556;44.570;18.612;2022-12-18T23:48:09;6.78;;;5.53;;
51479;SDS011;37556;44.570;18.612;2022-12-18T23:50:35;8.52;;;7.80;;
51479;SDS011;37556;44.570;18.612;2022-12-18T23:53:01;15.15;;;10.15;;
51479;SDS011;37556;44.570;18.612;2022-12-18T23:55:28;8.18;;;6.53;;
51479;SDS011;37556;44.570;18.612;2022-12-18T23:57:54;9.20;;;5.78;;
